createdAt,value
2022-08-17T00:02:26.820Z,3.70
2022-08-17T00:06:43.279Z,3.72
2022-08-17T00:11:06.108Z,3.92
2022-08-17T00:15:23.649Z,3.55
2022-08-17T00:19:40.011Z,3.70
2022-08-17T00:23:56.231Z,3.70
2022-08-17T00:28:15.145Z,3.62
2022-08-17T00:33:13.956Z,4.10
2022-08-17T00:37:14.753Z,4.13
2022-08-17T00:41:31.041Z,3.92
2022-08-17T00:45:49.131Z,3.50
2022-08-17T00:50:08.628Z,3.60
2022-08-17T00:54:45.095Z,3.75
2022-08-17T00:59:02.845Z,4.35
2022-08-17T01:03:22.070Z,4.22
2022-08-17T01:07:38.821Z,4.00
2022-08-17T01:11:54.986Z,3.55
2022-08-17T01:16:20.705Z,4.25
2022-08-17T01:20:42.646Z,4.28
2022-08-17T01:25:08.126Z,3.87
2022-08-17T01:29:24.748Z,4.35
2022-08-17T01:33:40.934Z,4.20
2022-08-17T01:37:57.039Z,4.22
2022-08-17T01:42:31.256Z,4.60
2022-08-17T01:46:47.392Z,3.83
2022-08-17T01:51:04.145Z,4.70
2022-08-17T01:55:27.342Z,4.75
2022-08-17T01:59:43.760Z,4.65
2022-08-17T02:04:01.063Z,4.53
2022-08-17T02:08:20.425Z,3.92
2022-08-17T02:12:50.746Z,4.18
2022-08-17T02:17:06.990Z,4.25
2022-08-17T02:21:23.159Z,4.35
2022-08-17T02:25:40.603Z,4.32
2022-08-17T02:29:56.606Z,4.47
2022-08-17T02:34:14.404Z,4.15
2022-08-17T02:38:32.086Z,4.55
2022-08-17T02:42:49.178Z,4.40
2022-08-17T02:47:06.153Z,4.40
2022-08-17T02:51:22.521Z,3.95
2022-08-17T02:55:40.673Z,4.40
2022-08-17T02:59:56.702Z,4.60
2022-08-17T03:04:12.874Z,4.40
2022-08-17T03:08:29.323Z,4.10
2022-08-17T03:12:45.980Z,4.40
2022-08-17T03:17:02.040Z,4.32
2022-08-17T03:21:18.113Z,3.97
2022-08-17T03:25:41.379Z,4.50
2022-08-17T03:29:59.668Z,4.28
2022-08-17T03:34:16.888Z,4.87
2022-08-17T03:38:39.198Z,4.43
2022-08-17T03:42:55.891Z,4.72
2022-08-17T03:47:30.660Z,4.68
2022-08-17T03:52:05.379Z,4.82
2022-08-17T03:56:40.065Z,5.00
2022-08-17T04:00:56.189Z,4.97
2022-08-17T04:05:12.329Z,5.10
2022-08-17T04:09:28.583Z,5.03
2022-08-17T04:13:44.693Z,5.15
2022-08-17T04:18:01.074Z,5.03
2022-08-17T04:22:32.069Z,4.68
2022-08-17T04:26:54.271Z,4.60
2022-08-17T04:31:14.705Z,4.97
2022-08-17T04:35:33.920Z,4.97
2022-08-17T04:40:10.015Z,5.28
2022-08-17T04:44:30.426Z,4.57
2022-08-17T04:48:57.337Z,5.10
2022-08-17T04:53:14.023Z,4.90
2022-08-17T04:57:30.098Z,4.80
2022-08-17T05:01:55.579Z,4.62
2022-08-17T05:06:12.021Z,5.00
2022-08-17T05:10:30.719Z,5.18
2022-08-17T05:14:46.762Z,5.32
2022-08-17T05:19:03.516Z,5.00
2022-08-17T05:23:21.309Z,5.22
2022-08-17T05:27:37.579Z,5.05
2022-08-17T05:31:56.483Z,4.90
2022-08-17T05:36:41.882Z,5.25
2022-08-17T05:40:51.433Z,4.90
2022-08-17T05:45:08.400Z,5.00
2022-08-17T05:49:29.116Z,5.57
2022-08-17T05:54:14.477Z,5.05
2022-08-17T05:59:12.326Z,4.47
2022-08-17T06:03:34.407Z,4.87
2022-08-17T06:08:11.453Z,5.00
2022-08-17T06:12:37.292Z,4.72
2022-08-17T06:17:10.469Z,4.60
2022-08-17T06:21:30.537Z,4.90
2022-08-17T06:25:52.110Z,4.80
2022-08-17T06:30:35.741Z,4.97
2022-08-17T06:35:13.803Z,4.87
2022-08-17T06:40:11.154Z,5.30
2022-08-17T06:45:05.901Z,4.95
2022-08-17T06:49:26.388Z,5.25
2022-08-17T06:54:02.895Z,4.80
2022-08-17T06:58:22.558Z,4.97
2022-08-17T07:03:00.559Z,5.57
2022-08-17T07:07:38.139Z,4.90
2022-08-17T07:12:00.910Z,5.93
2022-08-17T07:20:38.150Z,5.50
2022-08-17T07:25:07.509Z,5.12
2022-08-17T07:29:24.512Z,5.53
2022-08-17T07:33:41.159Z,5.43
2022-08-17T07:38:25.108Z,5.15
2022-08-17T07:42:46.553Z,4.97
2022-08-17T07:47:41.388Z,4.60
2022-08-17T07:52:24.100Z,5.43
2022-08-17T07:56:53.917Z,4.60
2022-08-17T08:01:15.323Z,5.15
2022-08-17T08:05:50.229Z,4.80
2022-08-17T08:10:25.224Z,5.53
2022-08-17T08:14:43.678Z,4.72
2022-08-17T08:19:01.635Z,5.20
2022-08-17T08:23:26.917Z,5.10
2022-08-17T08:28:05.321Z,4.80
2022-08-17T08:32:21.484Z,4.75
2022-08-17T08:37:14.145Z,5.45
2022-08-17T08:41:38.688Z,5.00
2022-08-17T08:46:16.387Z,5.47
2022-08-17T08:50:52.796Z,5.32
2022-08-17T08:55:26.240Z,4.87
2022-08-17T08:59:58.341Z,5.55
2022-08-17T09:05:02.755Z,5.00
2022-08-17T09:09:17.997Z,5.10
2022-08-17T09:14:00.508Z,5.12
2022-08-17T09:19:02.303Z,5.57
2022-08-17T09:23:46.616Z,5.37
2022-08-17T09:28:08.476Z,5.00
2022-08-17T09:32:34.052Z,5.00
2022-08-17T09:37:08.169Z,4.57
2022-08-17T09:41:27.273Z,4.57
2022-08-17T09:45:52.994Z,4.68
2022-08-17T09:51:03.663Z,4.80
2022-08-17T09:55:15.708Z,4.78
2022-08-17T09:59:38.206Z,4.60
2022-08-17T10:04:14.307Z,4.25
2022-08-17T10:08:48.081Z,4.37
2022-08-17T10:13:52.890Z,4.35
2022-08-17T10:18:38.946Z,4.82
2022-08-17T10:23:37.251Z,4.62
2022-08-17T10:27:59.884Z,4.47
2022-08-17T10:32:32.531Z,4.15
2022-08-17T10:37:12.963Z,4.28
2022-08-17T10:41:36.874Z,3.78
2022-08-17T10:46:30.981Z,4.57
2022-08-17T10:50:55.850Z,4.05
2022-08-17T10:55:17.947Z,4.00
2022-08-17T10:59:36.964Z,4.28
2022-08-17T11:03:58.392Z,3.90
2022-08-17T11:08:23.442Z,4.03
2022-08-17T11:12:47.777Z,3.87
2022-08-17T11:17:14.676Z,3.85
2022-08-17T11:21:56.518Z,4.00
2022-08-17T11:26:46.329Z,4.10
2022-08-17T11:31:38.575Z,4.68
2022-08-17T11:36:14.638Z,3.65
2022-08-17T11:40:48.893Z,4.62
2022-08-17T11:45:33.207Z,3.55
2022-08-17T11:50:57.341Z,3.50
2022-08-17T11:55:38.190Z,4.30
2022-08-17T12:00:00.159Z,3.95
2022-08-17T12:04:26.762Z,3.87
2022-08-17T12:08:45.657Z,3.78
2022-08-17T12:13:15.476Z,3.15
2022-08-17T12:17:40.167Z,3.70
2022-08-17T12:22:19.017Z,3.20
2022-08-17T12:26:36.454Z,3.60
2022-08-17T12:30:53.486Z,3.00
2022-08-17T12:35:25.313Z,3.10
2022-08-17T12:39:49.589Z,3.50
2022-08-17T12:44:25.371Z,3.12
2022-08-17T12:48:59.345Z,3.40
2022-08-17T12:53:29.992Z,3.00
2022-08-17T12:57:49.605Z,3.05
2022-08-17T13:02:07.458Z,2.87
2022-08-17T13:06:49.475Z,3.08
2022-08-17T13:11:16.624Z,3.03
2022-08-17T13:15:44.709Z,2.87
2022-08-17T13:20:02.253Z,2.60
2022-08-17T13:24:20.366Z,2.53
2022-08-17T13:28:37.688Z,2.83
2022-08-17T13:32:54.289Z,2.80
2022-08-17T13:37:27.029Z,2.85
2022-08-17T13:41:43.701Z,3.00
2022-08-17T13:46:10.377Z,2.75
2022-08-17T13:50:26.532Z,2.90
2022-08-17T13:54:42.735Z,2.70
2022-08-17T13:59:14.024Z,3.05
2022-08-17T14:03:30.089Z,3.30
2022-08-17T14:07:46.265Z,3.03
2022-08-17T14:12:03.386Z,3.15
2022-08-17T14:16:20.657Z,2.97
2022-08-17T14:20:36.753Z,3.05
2022-08-17T14:24:53.158Z,2.67
2022-08-17T14:29:15.060Z,2.70
2022-08-17T14:33:31.742Z,2.42
2022-08-17T14:37:48.173Z,2.87
2022-08-17T14:42:04.350Z,2.75
2022-08-17T14:46:20.622Z,2.60
2022-08-17T14:50:39.133Z,3.00
2022-08-17T14:54:55.390Z,2.80
2022-08-17T14:59:11.484Z,2.55
2022-08-17T15:03:27.668Z,2.75
2022-08-17T15:07:44.722Z,2.95
2022-08-17T15:12:06.606Z,2.65
2022-08-17T15:16:23.572Z,2.50
2022-08-17T15:20:39.744Z,2.90
2022-08-17T15:24:56.326Z,2.50
2022-08-17T15:29:12.343Z,2.40
2022-08-17T15:33:30.448Z,2.35
2022-08-17T15:37:46.624Z,2.55
2022-08-17T15:42:04.830Z,2.78
2022-08-17T15:46:23.287Z,2.67
2022-08-17T15:50:39.284Z,2.55
2022-08-17T15:55:01.763Z,2.40
2022-08-17T15:59:18.015Z,2.42
2022-08-17T16:03:58.298Z,2.55
2022-08-17T16:08:11.243Z,2.53
2022-08-17T16:12:27.739Z,2.25
2022-08-17T16:16:43.893Z,2.80
2022-08-17T16:21:31.191Z,2.45
2022-08-17T16:26:01.214Z,2.30
2022-08-17T16:30:18.102Z,2.50
2022-08-17T16:34:34.389Z,2.42
2022-08-17T16:38:50.780Z,2.45
2022-08-17T16:43:12.207Z,2.67
2022-08-17T16:47:28.536Z,2.42
2022-08-17T16:51:44.661Z,2.58
2022-08-17T16:56:01.067Z,2.28
2022-08-17T17:00:19.523Z,2.78
2022-08-17T17:04:38.464Z,2.30
2022-08-17T17:09:00.180Z,2.03
2022-08-17T17:13:36.076Z,2.20
2022-08-17T17:17:52.675Z,2.70
2022-08-17T17:22:14.261Z,2.40
2022-08-17T17:26:58.664Z,2.72
2022-08-17T17:31:20.646Z,2.58
2022-08-17T17:36:11.773Z,2.47
2022-08-17T17:40:42.933Z,2.50
2022-08-17T17:45:13.186Z,2.23
2022-08-17T17:49:38.434Z,2.80
2022-08-17T17:54:11.276Z,2.70
2022-08-17T17:58:56.199Z,2.62
2022-08-17T18:03:31.221Z,2.83
2022-08-17T18:08:32.427Z,3.83
2022-08-17T18:12:59.033Z,3.17
2022-08-17T18:17:15.140Z,3.50
2022-08-17T18:21:39.862Z,5.03
2022-08-17T18:25:58.673Z,4.07
2022-08-17T18:30:14.672Z,3.20
2022-08-17T18:34:48.564Z,2.90
2022-08-17T18:39:17.535Z,3.08
2022-08-17T18:43:53.119Z,3.15
2022-08-17T18:48:29.883Z,2.80
2022-08-17T18:52:49.480Z,3.33
2022-08-17T18:57:07.230Z,2.72
2022-08-17T19:01:47.193Z,2.87
2022-08-17T19:06:25.710Z,2.70
2022-08-17T19:10:46.952Z,2.70
2022-08-17T19:15:04.172Z,2.90
2022-08-17T19:19:48.223Z,2.50
2022-08-17T19:24:04.694Z,2.47
2022-08-17T19:28:32.772Z,2.67
2022-08-17T19:32:50.564Z,2.67
2022-08-17T19:37:35.476Z,2.92
2022-08-17T19:42:17.058Z,2.75
2022-08-17T19:46:48.731Z,3.10
2022-08-17T19:51:11.464Z,3.00
2022-08-17T19:55:44.013Z,2.70
2022-08-17T20:04:21.872Z,3.17
2022-08-17T20:08:52.972Z,2.72
2022-08-17T20:13:14.070Z,3.00
2022-08-17T20:17:45.544Z,2.90
2022-08-17T20:22:11.822Z,3.15
2022-08-17T20:26:58.838Z,3.05
2022-08-17T20:31:45.831Z,2.92
2022-08-17T20:36:12.364Z,2.80
2022-08-17T20:40:38.321Z,2.95
2022-08-17T20:44:58.175Z,2.50
2022-08-17T20:49:27.287Z,2.87
2022-08-17T20:54:15.780Z,2.92
2022-08-17T20:58:31.993Z,2.95
2022-08-17T21:02:50.891Z,2.70
2022-08-17T21:07:33.025Z,2.75
2022-08-17T21:12:04.515Z,2.90
2022-08-17T21:16:30.029Z,3.30
2022-08-17T21:21:17.796Z,2.70
2022-08-17T21:25:52.471Z,2.92
2022-08-17T21:30:34.897Z,2.87
2022-08-17T21:35:09.798Z,2.92
2022-08-17T21:39:40.143Z,3.12
2022-08-17T21:44:30.541Z,3.62
2022-08-17T21:48:49.415Z,2.95
2022-08-17T21:53:21.748Z,2.75
2022-08-17T21:57:41.488Z,3.00
2022-08-17T22:02:20.720Z,3.00
2022-08-17T22:06:40.538Z,2.83
2022-08-17T22:11:03.076Z,3.20
2022-08-17T22:15:20.683Z,2.70
2022-08-17T22:19:38.484Z,2.80
2022-08-17T22:24:06.484Z,3.00
2022-08-17T22:28:52.428Z,3.15
2022-08-17T22:33:33.525Z,3.08
2022-08-17T22:37:49.660Z,2.97
2022-08-17T22:42:12.564Z,2.78
2022-08-17T22:50:45.504Z,3.33
2022-08-17T22:55:39.497Z,3.47
2022-08-17T22:59:56.107Z,3.20
2022-08-17T23:04:29.682Z,2.95
2022-08-17T23:08:55.142Z,3.53
2022-08-17T23:13:12.339Z,3.25
2022-08-17T23:17:37.265Z,3.45
2022-08-17T23:21:57.940Z,2.85
2022-08-17T23:26:14.010Z,3.10
2022-08-17T23:30:36.881Z,3.42
2022-08-17T23:34:52.979Z,3.75
2022-08-17T23:39:09.137Z,3.83
2022-08-17T23:43:28.209Z,4.18
2022-08-17T23:47:46.846Z,3.50
2022-08-17T23:52:04.512Z,3.47
2022-08-17T23:56:26.101Z,3.72
